sensor_id;sensor_type;location;lat;lon;timestamp;P1;durP1;ratioP1;P2;durP2;ratioP2
31004;SDS011;17676;52.254;4.490;2023-02-14T00:02:22;62.60;;;34.10;;
31004;SDS011;17676;52.254;4.490;2023-02-14T00:04:47;56.90;;;33.20;;
31004;SDS011;17676;52.254;4.490;2023-02-14T00:07:12;56.73;;;32.73;;
31004;SDS011;17676;52.254;4.490;2023-02-14T00:09:38;58.63;;;33.50;;
31004;SDS011;17676;52.254;4.490;2023-02-14T00:12:03;63.43;;;35.33;;
31004;SDS011;17676;52.254;4.490;2023-02-14T00:14:32;57.20;;;32.33;;
31004;SDS011;17676;52.254;4.490;2023-02-14T00:17:16;60.00;;;34.47;;
31004;SDS011;17676;52.254;4.490;2023-02-14T00:19:44;61.70;;;32.90;;
31004;SDS011;17676;52.254;4.490;2023-02-14T00:22:13;57.23;;;33.20;;
31004;SDS011;17676;52.254;4.490;2023-02-14T00:24:38;62.03;;;34.07;;
31004;SDS011;17676;52.254;4.490;2023-02-14T00:27:03;58.13;;;32.23;;
31004;SDS011;17676;52.254;4.490;2023-02-14T00:29:29;56.93;;;33.23;;
31004;SDS011;17676;52.254;4.490;2023-02-14T00:31:58;53.37;;;30.93;;
31004;SDS011;17676;52.254;4.490;2023-02-14T00:34:26;57.00;;;33.33;;
31004;SDS011;17676;52.254;4.490;2023-02-14T00:36:52;56.77;;;32.27;;
31004;SDS011;17676;52.254;4.490;2023-02-14T00:39:17;54.80;;;31.23;;
31004;SDS011;17676;52.254;4.490;2023-02-14T00:41:43;51.73;;;31.03;;
31004;SDS011;17676;52.254;4.490;2023-02-14T00:44:09;55.90;;;32.27;;
31004;SDS011;17676;52.254;4.490;2023-02-14T00:46:35;59.17;;;33.33;;
31004;SDS011;17676;52.254;4.490;2023-02-14T00:49:00;57.23;;;31.93;;
31004;SDS011;17676;52.254;4.490;2023-02-14T00:51:25;60.20;;;32.97;;
31004;SDS011;17676;52.254;4.490;2023-02-14T00:53:51;54.87;;;30.57;;
31004;SDS011;17676;52.254;4.490;2023-02-14T00:56:17;55.77;;;31.67;;
31004;SDS011;17676;52.254;4.490;2023-02-14T00:58:42;56.27;;;31.23;;
31004;SDS011;17676;52.254;4.490;2023-02-14T01:01:08;50.73;;;29.50;;
31004;SDS011;17676;52.254;4.490;2023-02-14T01:03:33;46.17;;;28.57;;
31004;SDS011;17676;52.254;4.490;2023-02-14T01:05:59;51.67;;;30.17;;
31004;SDS011;17676;52.254;4.490;2023-02-14T01:08:24;53.33;;;30.67;;
31004;SDS011;17676;52.254;4.490;2023-02-14T01:10:50;50.17;;;29.07;;
31004;SDS011;17676;52.254;4.490;2023-02-14T01:13:16;46.97;;;28.13;;
31004;SDS011;17676;52.254;4.490;2023-02-14T01:15:43;46.40;;;28.07;;
31004;SDS011;17676;52.254;4.490;2023-02-14T01:18:08;46.70;;;28.67;;
31004;SDS011;17676;52.254;4.490;2023-02-14T01:20:33;47.03;;;28.90;;
31004;SDS011;17676;52.254;4.490;2023-02-14T01:22:59;42.33;;;26.50;;
31004;SDS011;17676;52.254;4.490;2023-02-14T01:25:24;47.47;;;27.27;;
31004;SDS011;17676;52.254;4.490;2023-02-14T01:27:49;44.27;;;26.70;;
31004;SDS011;17676;52.254;4.490;2023-02-14T01:30:15;46.87;;;26.17;;
31004;SDS011;17676;52.254;4.490;2023-02-14T01:32:40;43.43;;;25.93;;
31004;SDS011;17676;52.254;4.490;2023-02-14T01:35:06;41.13;;;25.97;;
31004;SDS011;17676;52.254;4.490;2023-02-14T01:37:32;39.43;;;24.93;;
31004;SDS011;17676;52.254;4.490;2023-02-14T01:39:57;41.70;;;24.73;;
31004;SDS011;17676;52.254;4.490;2023-02-14T01:42:23;37.27;;;24.00;;
31004;SDS011;17676;52.254;4.490;2023-02-14T01:47:14;41.83;;;25.50;;
31004;SDS011;17676;52.254;4.490;2023-02-14T01:49:42;44.33;;;26.17;;
31004;SDS011;17676;52.254;4.490;2023-02-14T01:54:39;42.30;;;24.73;;
31004;SDS011;17676;52.254;4.490;2023-02-14T01:57:06;45.00;;;26.27;;
31004;SDS011;17676;52.254;4.490;2023-02-14T01:59:34;42.47;;;25.00;;
31004;SDS011;17676;52.254;4.490;2023-02-14T02:02:00;58.57;;;28.53;;
31004;SDS011;17676;52.254;4.490;2023-02-14T02:04:30;45.37;;;25.77;;
31004;SDS011;17676;52.254;4.490;2023-02-14T02:06:58;49.13;;;26.90;;
31004;SDS011;17676;52.254;4.490;2023-02-14T02:09:30;48.60;;;27.63;;
31004;SDS011;17676;52.254;4.490;2023-02-14T02:11:56;49.30;;;27.20;;
31004;SDS011;17676;52.254;4.490;2023-02-14T02:14:22;47.37;;;26.50;;
31004;SDS011;17676;52.254;4.490;2023-02-14T02:22:26;42.50;;;25.13;;
31004;SDS011;17676;52.254;4.490;2023-02-14T02:35:22;44.63;;;26.13;;
31004;SDS011;17676;52.254;4.490;2023-02-14T02:38:05;42.83;;;26.07;;
31004;SDS011;17676;52.254;4.490;2023-02-14T02:40:53;36.77;;;24.03;;
31004;SDS011;17676;52.254;4.490;2023-02-14T02:48:42;39.30;;;23.87;;
31004;SDS011;17676;52.254;4.490;2023-02-14T02:51:10;34.33;;;23.20;;
31004;SDS011;17676;52.254;4.490;2023-02-14T02:53:58;44.47;;;23.73;;
31004;SDS011;17676;52.254;4.490;2023-02-14T02:56:24;37.00;;;23.07;;
31004;SDS011;17676;52.254;4.490;2023-02-14T02:59:10;38.00;;;23.07;;
31004;SDS011;17676;52.254;4.490;2023-02-14T03:01:47;39.80;;;23.10;;
31004;SDS011;17676;52.254;4.490;2023-02-14T03:04:14;57.70;;;25.87;;
31004;SDS011;17676;52.254;4.490;2023-02-14T03:06:59;39.77;;;25.27;;
31004;SDS011;17676;52.254;4.490;2023-02-14T03:12:05;33.53;;;23.37;;
31004;SDS011;17676;52.254;4.490;2023-02-14T03:17:03;36.83;;;22.80;;
31004;SDS011;17676;52.254;4.490;2023-02-14T03:19:40;35.87;;;22.80;;
31004;SDS011;17676;52.254;4.490;2023-02-14T03:25:16;36.77;;;23.23;;
31004;SDS011;17676;52.254;4.490;2023-02-14T03:27:48;35.43;;;22.47;;
31004;SDS011;17676;52.254;4.490;2023-02-14T03:32:45;32.77;;;22.27;;
31004;SDS011;17676;52.254;4.490;2023-02-14T03:37:42;31.87;;;22.60;;
31004;SDS011;17676;52.254;4.490;2023-02-14T03:42:44;37.20;;;22.63;;
31004;SDS011;17676;52.254;4.490;2023-02-14T03:45:12;33.93;;;22.20;;
31004;SDS011;17676;52.254;4.490;2023-02-14T03:47:43;31.57;;;21.70;;
31004;SDS011;17676;52.254;4.490;2023-02-14T03:50:11;30.80;;;22.43;;
31004;SDS011;17676;52.254;4.490;2023-02-14T03:52:38;30.70;;;21.83;;
31004;SDS011;17676;52.254;4.490;2023-02-14T03:55:05;33.17;;;23.27;;
31004;SDS011;17676;52.254;4.490;2023-02-14T03:57:32;32.67;;;24.00;;
31004;SDS011;17676;52.254;4.490;2023-02-14T03:59:58;27.90;;;21.10;;
31004;SDS011;17676;52.254;4.490;2023-02-14T04:02:26;32.10;;;22.50;;
31004;SDS011;17676;52.254;4.490;2023-02-14T04:04:56;33.07;;;23.30;;
31004;SDS011;17676;52.254;4.490;2023-02-14T04:07:23;32.27;;;22.77;;
31004;SDS011;17676;52.254;4.490;2023-02-14T04:09:48;31.43;;;22.83;;
31004;SDS011;17676;52.254;4.490;2023-02-14T04:12:14;29.57;;;21.37;;
31004;SDS011;17676;52.254;4.490;2023-02-14T04:14:39;33.90;;;22.70;;
31004;SDS011;17676;52.254;4.490;2023-02-14T04:17:05;32.57;;;23.37;;
31004;SDS011;17676;52.254;4.490;2023-02-14T04:19:49;30.87;;;21.87;;
31004;SDS011;17676;52.254;4.490;2023-02-14T04:22:15;30.43;;;21.83;;
31004;SDS011;17676;52.254;4.490;2023-02-14T04:24:40;42.17;;;23.23;;
31004;SDS011;17676;52.254;4.490;2023-02-14T04:27:05;47.13;;;25.00;;
31004;SDS011;17676;52.254;4.490;2023-02-14T04:29:43;34.13;;;23.10;;
31004;SDS011;17676;52.254;4.490;2023-02-14T04:32:14;32.67;;;23.73;;
31004;SDS011;17676;52.254;4.490;2023-02-14T04:34:39;33.07;;;24.23;;
31004;SDS011;17676;52.254;4.490;2023-02-14T04:37:05;44.47;;;25.07;;
31004;SDS011;17676;52.254;4.490;2023-02-14T04:39:31;39.53;;;24.43;;
31004;SDS011;17676;52.254;4.490;2023-02-14T04:41:56;39.20;;;24.90;;
31004;SDS011;17676;52.254;4.490;2023-02-14T04:44:22;37.67;;;25.37;;
31004;SDS011;17676;52.254;4.490;2023-02-14T04:46:47;36.10;;;23.23;;
31004;SDS011;17676;52.254;4.490;2023-02-14T04:49:12;35.17;;;24.03;;
31004;SDS011;17676;52.254;4.490;2023-02-14T04:51:38;38.33;;;25.57;;
31004;SDS011;17676;52.254;4.490;2023-02-14T04:54:03;38.80;;;23.37;;
31004;SDS011;17676;52.254;4.490;2023-02-14T04:56:29;41.50;;;24.13;;
31004;SDS011;17676;52.254;4.490;2023-02-14T04:58:55;40.33;;;24.80;;
31004;SDS011;17676;52.254;4.490;2023-02-14T05:01:20;42.63;;;23.93;;
31004;SDS011;17676;52.254;4.490;2023-02-14T05:03:46;40.00;;;25.60;;
31004;SDS011;17676;52.254;4.490;2023-02-14T05:06:13;38.03;;;23.67;;
31004;SDS011;17676;52.254;4.490;2023-02-14T05:08:39;40.43;;;23.90;;
31004;SDS011;17676;52.254;4.490;2023-02-14T05:11:04;56.57;;;24.93;;
31004;SDS011;17676;52.254;4.490;2023-02-14T05:13:29;86.87;;;27.67;;
31004;SDS011;17676;52.254;4.490;2023-02-14T05:15:56;49.30;;;25.77;;
31004;SDS011;17676;52.254;4.490;2023-02-14T05:18:21;40.63;;;24.43;;
31004;SDS011;17676;52.254;4.490;2023-02-14T05:20:50;37.63;;;23.77;;
31004;SDS011;17676;52.254;4.490;2023-02-14T05:23:15;41.70;;;24.90;;
31004;SDS011;17676;52.254;4.490;2023-02-14T05:25:41;49.30;;;26.53;;
31004;SDS011;17676;52.254;4.490;2023-02-14T05:28:06;42.73;;;25.10;;
31004;SDS011;17676;52.254;4.490;2023-02-14T05:30:32;38.60;;;24.17;;
31004;SDS011;17676;52.254;4.490;2023-02-14T05:32:57;39.20;;;24.17;;
31004;SDS011;17676;52.254;4.490;2023-02-14T05:35:24;37.70;;;24.43;;
31004;SDS011;17676;52.254;4.490;2023-02-14T05:37:50;39.10;;;23.80;;
31004;SDS011;17676;52.254;4.490;2023-02-14T05:40:15;37.97;;;23.70;;
31004;SDS011;17676;52.254;4.490;2023-02-14T05:42:41;41.93;;;24.43;;
31004;SDS011;17676;52.254;4.490;2023-02-14T05:45:06;36.70;;;23.47;;
31004;SDS011;17676;52.254;4.490;2023-02-14T05:47:32;33.93;;;24.07;;
31004;SDS011;17676;52.254;4.490;2023-02-14T05:50:01;51.73;;;24.53;;
31004;SDS011;17676;52.254;4.490;2023-02-14T05:52:30;47.23;;;24.73;;
31004;SDS011;17676;52.254;4.490;2023-02-14T05:54:55;57.67;;;24.93;;
31004;SDS011;17676;52.254;4.490;2023-02-14T05:57:21;125.53;;;28.67;;
31004;SDS011;17676;52.254;4.490;2023-02-14T05:59:46;109.93;;;27.40;;
31004;SDS011;17676;52.254;4.490;2023-02-14T06:02:11;194.10;;;30.50;;
31004;SDS011;17676;52.254;4.490;2023-02-14T06:04:38;138.63;;;28.83;;
31004;SDS011;17676;52.254;4.490;2023-02-14T06:07:03;206.60;;;30.30;;
31004;SDS011;17676;52.254;4.490;2023-02-14T06:09:28;175.93;;;28.33;;
31004;SDS011;17676;52.254;4.490;2023-02-14T06:11:53;187.53;;;30.00;;
31004;SDS011;17676;52.254;4.490;2023-02-14T06:14:19;131.93;;;27.17;;
31004;SDS011;17676;52.254;4.490;2023-02-14T06:16:44;149.83;;;28.37;;
31004;SDS011;17676;52.254;4.490;2023-02-14T06:19:09;90.70;;;28.03;;
31004;SDS011;17676;52.254;4.490;2023-02-14T06:21:35;92.03;;;24.50;;
31004;SDS011;17676;52.254;4.490;2023-02-14T06:24:00;119.40;;;28.87;;
31004;SDS011;17676;52.254;4.490;2023-02-14T06:26:26;97.03;;;26.07;;
31004;SDS011;17676;52.254;4.490;2023-02-14T06:28:55;108.57;;;27.83;;
31004;SDS011;17676;52.254;4.490;2023-02-14T06:31:21;93.20;;;27.73;;
31004;SDS011;17676;52.254;4.490;2023-02-14T06:33:46;75.97;;;27.17;;
31004;SDS011;17676;52.254;4.490;2023-02-14T06:36:12;103.57;;;26.43;;
31004;SDS011;17676;52.254;4.490;2023-02-14T06:38:38;81.20;;;27.27;;
31004;SDS011;17676;52.254;4.490;2023-02-14T06:41:04;62.90;;;26.63;;
31004;SDS011;17676;52.254;4.490;2023-02-14T06:43:30;143.70;;;29.07;;
31004;SDS011;17676;52.254;4.490;2023-02-14T06:45:56;121.80;;;27.33;;
31004;SDS011;17676;52.254;4.490;2023-02-14T06:48:21;104.70;;;28.20;;
31004;SDS011;17676;52.254;4.490;2023-02-14T06:50:47;98.93;;;26.13;;
31004;SDS011;17676;52.254;4.490;2023-02-14T06:53:12;107.73;;;28.20;;
31004;SDS011;17676;52.254;4.490;2023-02-14T06:55:37;132.67;;;28.47;;
31004;SDS011;17676;52.254;4.490;2023-02-14T06:58:03;102.97;;;28.07;;
31004;SDS011;17676;52.254;4.490;2023-02-14T07:00:28;90.67;;;27.30;;
31004;SDS011;17676;52.254;4.490;2023-02-14T07:02:53;78.30;;;28.10;;
31004;SDS011;17676;52.254;4.490;2023-02-14T07:05:19;101.97;;;28.40;;
31004;SDS011;17676;52.254;4.490;2023-02-14T07:07:44;127.30;;;29.50;;
31004;SDS011;17676;52.254;4.490;2023-02-14T07:10:10;158.43;;;31.40;;
31004;SDS011;17676;52.254;4.490;2023-02-14T07:12:36;116.30;;;28.60;;
31004;SDS011;17676;52.254;4.490;2023-02-14T07:15:04;105.53;;;28.23;;
31004;SDS011;17676;52.254;4.490;2023-02-14T07:17:29;93.03;;;28.27;;
31004;SDS011;17676;52.254;4.490;2023-02-14T07:19:54;91.13;;;26.73;;
31004;SDS011;17676;52.254;4.490;2023-02-14T07:22:19;83.10;;;27.57;;
31004;SDS011;17676;52.254;4.490;2023-02-14T07:24:45;83.17;;;27.53;;
31004;SDS011;17676;52.254;4.490;2023-02-14T07:27:12;80.47;;;27.17;;
31004;SDS011;17676;52.254;4.490;2023-02-14T07:29:38;60.50;;;26.40;;
31004;SDS011;17676;52.254;4.490;2023-02-14T07:32:04;157.43;;;28.53;;
31004;SDS011;17676;52.254;4.490;2023-02-14T07:34:29;96.20;;;28.10;;
31004;SDS011;17676;52.254;4.490;2023-02-14T07:36:55;121.07;;;27.57;;
31004;SDS011;17676;52.254;4.490;2023-02-14T07:39:21;96.77;;;28.97;;
31004;SDS011;17676;52.254;4.490;2023-02-14T07:41:46;61.57;;;26.60;;
31004;SDS011;17676;52.254;4.490;2023-02-14T07:44:12;57.17;;;27.47;;
31004;SDS011;17676;52.254;4.490;2023-02-14T07:46:37;107.23;;;29.10;;
31004;SDS011;17676;52.254;4.490;2023-02-14T07:49:02;85.70;;;28.90;;
31004;SDS011;17676;52.254;4.490;2023-02-14T07:51:28;93.20;;;25.70;;
31004;SDS011;17676;52.254;4.490;2023-02-14T07:53:53;105.97;;;28.77;;
31004;SDS011;17676;52.254;4.490;2023-02-14T07:56:19;68.30;;;25.30;;
31004;SDS011;17676;52.254;4.490;2023-02-14T07:58:44;73.93;;;26.50;;
31004;SDS011;17676;52.254;4.490;2023-02-14T08:01:11;91.17;;;27.50;;
31004;SDS011;17676;52.254;4.490;2023-02-14T08:03:36;73.20;;;25.90;;
31004;SDS011;17676;52.254;4.490;2023-02-14T08:06:02;74.20;;;26.60;;
31004;SDS011;17676;52.254;4.490;2023-02-14T08:08:28;39.30;;;25.00;;
31004;SDS011;17676;52.254;4.490;2023-02-14T08:10:54;49.63;;;24.07;;
31004;SDS011;17676;52.254;4.490;2023-02-14T08:13:19;30.43;;;20.90;;
31004;SDS011;17676;52.254;4.490;2023-02-14T08:15:45;49.03;;;22.77;;
31004;SDS011;17676;52.254;4.490;2023-02-14T08:18:30;36.87;;;23.57;;
31004;SDS011;17676;52.254;4.490;2023-02-14T08:20:56;31.53;;;24.40;;
31004;SDS011;17676;52.254;4.490;2023-02-14T08:23:21;43.17;;;22.73;;
31004;SDS011;17676;52.254;4.490;2023-02-14T08:25:47;29.30;;;20.60;;
31004;SDS011;17676;52.254;4.490;2023-02-14T08:28:13;27.80;;;21.57;;
31004;SDS011;17676;52.254;4.490;2023-02-14T08:30:40;23.00;;;19.43;;
31004;SDS011;17676;52.254;4.490;2023-02-14T08:33:06;26.33;;;21.73;;
31004;SDS011;17676;52.254;4.490;2023-02-14T08:35:31;24.37;;;20.33;;
31004;SDS011;17676;52.254;4.490;2023-02-14T08:37:57;20.23;;;18.03;;
31004;SDS011;17676;52.254;4.490;2023-02-14T08:40:22;18.27;;;16.27;;
31004;SDS011;17676;52.254;4.490;2023-02-14T08:42:56;16.45;;;14.63;;
31004;SDS011;17676;52.254;4.490;2023-02-14T08:45:22;14.60;;;12.68;;
31004;SDS011;17676;52.254;4.490;2023-02-14T08:47:50;13.07;;;11.77;;
31004;SDS011;17676;52.254;4.490;2023-02-14T08:50:17;15.02;;;12.52;;
31004;SDS011;17676;52.254;4.490;2023-02-14T08:52:42;12.07;;;10.90;;
31004;SDS011;17676;52.254;4.490;2023-02-14T08:55:09;12.38;;;11.18;;
31004;SDS011;17676;52.254;4.490;2023-02-14T08:57:35;11.80;;;10.70;;
31004;SDS011;17676;52.254;4.490;2023-02-14T09:00:00;10.88;;;9.85;;
31004;SDS011;17676;52.254;4.490;2023-02-14T09:02:27;11.15;;;10.13;;
31004;SDS011;17676;52.254;4.490;2023-02-14T09:04:52;11.32;;;10.15;;
31004;SDS011;17676;52.254;4.490;2023-02-14T09:07:18;11.55;;;10.55;;
31004;SDS011;17676;52.254;4.490;2023-02-14T09:09:45;11.82;;;10.73;;
31004;SDS011;17676;52.254;4.490;2023-02-14T09:12:10;12.30;;;11.10;;
31004;SDS011;17676;52.254;4.490;2023-02-14T09:14:36;13.35;;;12.00;;
31004;SDS011;17676;52.254;4.490;2023-02-14T09:17:01;14.73;;;13.07;;
31004;SDS011;17676;52.254;4.490;2023-02-14T09:19:33;16.33;;;14.63;;
31004;SDS011;17676;52.254;4.490;2023-02-14T09:21:59;18.15;;;15.48;;
31004;SDS011;17676;52.254;4.490;2023-02-14T09:24:27;17.58;;;14.27;;
31004;SDS011;17676;52.254;4.490;2023-02-14T09:26:53;17.83;;;15.93;;
31004;SDS011;17676;52.254;4.490;2023-02-14T09:29:19;18.38;;;15.98;;
31004;SDS011;17676;52.254;4.490;2023-02-14T09:31:45;18.70;;;16.80;;
31004;SDS011;17676;52.254;4.490;2023-02-14T09:34:13;19.40;;;17.38;;
31004;SDS011;17676;52.254;4.490;2023-02-14T09:36:40;22.42;;;17.45;;
31004;SDS011;17676;52.254;4.490;2023-02-14T09:39:06;19.98;;;17.73;;
31004;SDS011;17676;52.254;4.490;2023-02-14T09:44:11;20.35;;;18.35;;
31004;SDS011;17676;52.254;4.490;2023-02-14T09:46:44;21.13;;;18.15;;
31004;SDS011;17676;52.254;4.490;2023-02-14T09:49:14;21.83;;;19.52;;
31004;SDS011;17676;52.254;4.490;2023-02-14T09:51:44;22.00;;;19.55;;
31004;SDS011;17676;52.254;4.490;2023-02-14T09:54:11;21.83;;;19.45;;
31004;SDS011;17676;52.254;4.490;2023-02-14T09:56:59;24.63;;;20.02;;
31004;SDS011;17676;52.254;4.490;2023-02-14T10:01:55;25.02;;;21.13;;
31004;SDS011;17676;52.254;4.490;2023-02-14T10:11:54;25.55;;;21.63;;
31004;SDS011;17676;52.254;4.490;2023-02-14T10:14:24;31.42;;;21.63;;
31004;SDS011;17676;52.254;4.490;2023-02-14T10:19:51;32.20;;;23.83;;
31004;SDS011;17676;52.254;4.490;2023-02-14T10:22:18;28.17;;;21.77;;
31004;SDS011;17676;52.254;4.490;2023-02-14T10:25:29;34.05;;;24.75;;
31004;SDS011;17676;52.254;4.490;2023-02-14T10:27:36;31.33;;;24.38;;
31004;SDS011;17676;52.254;4.490;2023-02-14T10:30:15;29.75;;;25.60;;
31004;SDS011;17676;52.254;4.490;2023-02-14T10:32:58;33.17;;;25.27;;
31004;SDS011;17676;52.254;4.490;2023-02-14T10:38:05;33.28;;;25.77;;
31004;SDS011;17676;52.254;4.490;2023-02-14T10:50:45;31.33;;;26.50;;
31004;SDS011;17676;52.254;4.490;2023-02-14T10:53:24;37.72;;;26.98;;
31004;SDS011;17676;52.254;4.490;2023-02-14T11:02:21;39.63;;;30.50;;
31004;SDS011;17676;52.254;4.490;2023-02-14T11:04:47;38.58;;;29.63;;
31004;SDS011;17676;52.254;4.490;2023-02-14T11:07:14;37.75;;;30.05;;
31004;SDS011;17676;52.254;4.490;2023-02-14T11:09:40;37.92;;;30.67;;
31004;SDS011;17676;52.254;4.490;2023-02-14T11:12:07;41.13;;;30.88;;
31004;SDS011;17676;52.254;4.490;2023-02-14T11:14:37;40.67;;;31.77;;
31004;SDS011;17676;52.254;4.490;2023-02-14T11:17:35;40.13;;;32.25;;
31004;SDS011;17676;52.254;4.490;2023-02-14T11:22:29;41.00;;;32.33;;
31004;SDS011;17676;52.254;4.490;2023-02-14T11:25:05;41.10;;;31.70;;
31004;SDS011;17676;52.254;4.490;2023-02-14T11:27:31;40.47;;;31.48;;
31004;SDS011;17676;52.254;4.490;2023-02-14T11:29:58;38.95;;;30.40;;
31004;SDS011;17676;52.254;4.490;2023-02-14T11:32:27;38.17;;;31.05;;
31004;SDS011;17676;52.254;4.490;2023-02-14T11:35:03;36.50;;;29.42;;
31004;SDS011;17676;52.254;4.490;2023-02-14T11:39:56;38.47;;;31.10;;
31004;SDS011;17676;52.254;4.490;2023-02-14T11:42:33;37.63;;;30.27;;
31004;SDS011;17676;52.254;4.490;2023-02-14T11:45:00;36.63;;;30.33;;
31004;SDS011;17676;52.254;4.490;2023-02-14T11:47:28;33.78;;;28.92;;
31004;SDS011;17676;52.254;4.490;2023-02-14T11:50:01;33.85;;;27.52;;
31004;SDS011;17676;52.254;4.490;2023-02-14T11:52:28;34.90;;;29.15;;
31004;SDS011;17676;52.254;4.490;2023-02-14T11:54:54;35.50;;;29.50;;
31004;SDS011;17676;52.254;4.490;2023-02-14T11:57:22;33.75;;;30.13;;
31004;SDS011;17676;52.254;4.490;2023-02-14T11:59:49;36.83;;;29.38;;
31004;SDS011;17676;52.254;4.490;2023-02-14T12:02:28;35.03;;;28.42;;
31004;SDS011;17676;52.254;4.490;2023-02-14T12:05:18;33.85;;;29.88;;
31004;SDS011;17676;52.254;4.490;2023-02-14T12:07:44;34.03;;;30.23;;
31004;SDS011;17676;52.254;4.490;2023-02-14T12:10:26;33.83;;;29.50;;
31004;SDS011;17676;52.254;4.490;2023-02-14T12:15:35;34.65;;;29.20;;
31004;SDS011;17676;52.254;4.490;2023-02-14T12:28:50;31.88;;;28.50;;
31004;SDS011;17676;52.254;4.490;2023-02-14T12:31:18;35.10;;;29.48;;
31004;SDS011;17676;52.254;4.490;2023-02-14T12:33:44;34.10;;;29.23;;
31004;SDS011;17676;52.254;4.490;2023-02-14T12:43:49;36.65;;;30.63;;
31004;SDS011;17676;52.254;4.490;2023-02-14T12:49:02;38.00;;;31.20;;
31004;SDS011;17676;52.254;4.490;2023-02-14T12:56:57;42.42;;;33.17;;
31004;SDS011;17676;52.254;4.490;2023-02-14T12:59:27;42.92;;;33.05;;
31004;SDS011;17676;52.254;4.490;2023-02-14T13:10:13;44.33;;;33.63;;
31004;SDS011;17676;52.254;4.490;2023-02-14T13:12:41;45.35;;;33.67;;
31004;SDS011;17676;52.254;4.490;2023-02-14T13:22:51;46.72;;;32.92;;
31004;SDS011;17676;52.254;4.490;2023-02-14T13:27:46;38.80;;;30.13;;
31004;SDS011;17676;52.254;4.490;2023-02-14T13:30:15;38.10;;;29.80;;
31004;SDS011;17676;52.254;4.490;2023-02-14T13:32:45;39.67;;;29.20;;
31004;SDS011;17676;52.254;4.490;2023-02-14T13:35:14;50.15;;;37.65;;
31004;SDS011;17676;52.254;4.490;2023-02-14T13:37:41;52.25;;;40.47;;
31004;SDS011;17676;52.254;4.490;2023-02-14T13:40:15;62.22;;;42.35;;
31004;SDS011;17676;52.254;4.490;2023-02-14T13:48:03;55.45;;;40.75;;
31004;SDS011;17676;52.254;4.490;2023-02-14T13:50:29;53.92;;;42.08;;
31004;SDS011;17676;52.254;4.490;2023-02-14T13:52:55;59.65;;;42.17;;
31004;SDS011;17676;52.254;4.490;2023-02-14T13:55:22;53.40;;;40.35;;
31004;SDS011;17676;52.254;4.490;2023-02-14T13:58:01;54.50;;;41.53;;
31004;SDS011;17676;52.254;4.490;2023-02-14T14:03:02;53.03;;;40.60;;
31004;SDS011;17676;52.254;4.490;2023-02-14T14:10:47;51.75;;;40.47;;
31004;SDS011;17676;52.254;4.490;2023-02-14T14:18:41;54.15;;;41.03;;
31004;SDS011;17676;52.254;4.490;2023-02-14T14:21:13;54.22;;;40.67;;
31004;SDS011;17676;52.254;4.490;2023-02-14T14:23:38;52.40;;;40.75;;
31004;SDS011;17676;52.254;4.490;2023-02-14T14:28:49;56.97;;;42.92;;
31004;SDS011;17676;52.254;4.490;2023-02-14T14:31:18;56.95;;;42.85;;
31004;SDS011;17676;52.254;4.490;2023-02-14T14:33:43;60.20;;;43.70;;
31004;SDS011;17676;52.254;4.490;2023-02-14T14:36:09;59.83;;;43.75;;
31004;SDS011;17676;52.254;4.490;2023-02-14T14:38:46;61.20;;;44.42;;
31004;SDS011;17676;52.254;4.490;2023-02-14T14:41:12;62.33;;;46.28;;
31004;SDS011;17676;52.254;4.490;2023-02-14T14:43:37;61.47;;;44.40;;
31004;SDS011;17676;52.254;4.490;2023-02-14T14:46:03;66.97;;;45.75;;
31004;SDS011;17676;52.254;4.490;2023-02-14T14:48:32;58.15;;;44.70;;
31004;SDS011;17676;52.254;4.490;2023-02-14T14:50:59;63.15;;;45.58;;
31004;SDS011;17676;52.254;4.490;2023-02-14T14:55:50;61.92;;;45.67;;
31004;SDS011;17676;52.254;4.490;2023-02-14T14:58:38;63.35;;;47.08;;
31004;SDS011;17676;52.254;4.490;2023-02-14T15:01:05;64.70;;;47.10;;
31004;SDS011;17676;52.254;4.490;2023-02-14T15:03:30;63.10;;;47.05;;
31004;SDS011;17676;52.254;4.490;2023-02-14T15:06:04;59.60;;;45.78;;
31004;SDS011;17676;52.254;4.490;2023-02-14T15:08:30;63.88;;;46.90;;
31004;SDS011;17676;52.254;4.490;2023-02-14T15:11:03;60.20;;;45.58;;
31004;SDS011;17676;52.254;4.490;2023-02-14T15:13:52;65.07;;;47.53;;
31004;SDS011;17676;52.254;4.490;2023-02-14T15:16:24;63.90;;;45.45;;
31004;SDS011;17676;52.254;4.490;2023-02-14T15:18:50;60.55;;;46.03;;
31004;SDS011;17676;52.254;4.490;2023-02-14T15:21:17;63.60;;;46.92;;
31004;SDS011;17676;52.254;4.490;2023-02-14T15:23:42;65.10;;;46.70;;
31004;SDS011;17676;52.254;4.490;2023-02-14T15:26:17;67.45;;;47.17;;
31004;SDS011;17676;52.254;4.490;2023-02-14T15:28:43;66.78;;;47.78;;
31004;SDS011;17676;52.254;4.490;2023-02-14T15:31:12;61.28;;;45.17;;
31004;SDS011;17676;52.254;4.490;2023-02-14T15:33:37;65.28;;;46.97;;
31004;SDS011;17676;52.254;4.490;2023-02-14T15:36:03;64.43;;;48.15;;
31004;SDS011;17676;52.254;4.490;2023-02-14T15:38:30;65.15;;;46.63;;
31004;SDS011;17676;52.254;4.490;2023-02-14T15:40:56;66.47;;;48.03;;
31004;SDS011;17676;52.254;4.490;2023-02-14T15:43:23;65.32;;;46.17;;
31004;SDS011;17676;52.254;4.490;2023-02-14T15:45:52;64.85;;;47.30;;
31004;SDS011;17676;52.254;4.490;2023-02-14T15:48:23;65.03;;;47.95;;
31004;SDS011;17676;52.254;4.490;2023-02-14T15:50:54;65.15;;;46.67;;
31004;SDS011;17676;52.254;4.490;2023-02-14T15:53:30;65.88;;;48.03;;
31004;SDS011;17676;52.254;4.490;2023-02-14T15:56:05;65.90;;;48.35;;
31004;SDS011;17676;52.254;4.490;2023-02-14T15:58:31;64.75;;;48.53;;
31004;SDS011;17676;52.254;4.490;2023-02-14T16:00:57;66.18;;;47.75;;
31004;SDS011;17676;52.254;4.490;2023-02-14T16:03:24;66.97;;;48.45;;
31004;SDS011;17676;52.254;4.490;2023-02-14T16:05:49;69.20;;;48.55;;
31004;SDS011;17676;52.254;4.490;2023-02-14T16:08:34;67.68;;;49.88;;
31004;SDS011;17676;52.254;4.490;2023-02-14T16:11:02;70.55;;;48.10;;
31004;SDS011;17676;52.254;4.490;2023-02-14T16:13:29;66.43;;;48.10;;
31004;SDS011;17676;52.254;4.490;2023-02-14T16:16:05;66.95;;;48.30;;
31004;SDS011;17676;52.254;4.490;2023-02-14T16:18:38;66.93;;;48.28;;
31004;SDS011;17676;52.254;4.490;2023-02-14T16:21:23;76.05;;;50.47;;
31004;SDS011;17676;52.254;4.490;2023-02-14T16:24:10;69.50;;;49.20;;
31004;SDS011;17676;52.254;4.490;2023-02-14T16:26:37;72.13;;;49.67;;
31004;SDS011;17676;52.254;4.490;2023-02-14T16:29:36;69.50;;;50.67;;
31004;SDS011;17676;52.254;4.490;2023-02-14T16:31:55;73.50;;;50.80;;
31004;SDS011;17676;52.254;4.490;2023-02-14T16:34:21;75.35;;;51.10;;
31004;SDS011;17676;52.254;4.490;2023-02-14T16:36:47;73.75;;;50.60;;
31004;SDS011;17676;52.254;4.490;2023-02-14T16:39:13;69.38;;;48.80;;
31004;SDS011;17676;52.254;4.490;2023-02-14T16:41:39;72.18;;;50.65;;
31004;SDS011;17676;52.254;4.490;2023-02-14T16:44:10;78.43;;;53.45;;
31004;SDS011;17676;52.254;4.490;2023-02-14T16:46:36;71.95;;;51.28;;
31004;SDS011;17676;52.254;4.490;2023-02-14T16:49:01;77.78;;;54.13;;
31004;SDS011;17676;52.254;4.490;2023-02-14T16:51:27;78.53;;;54.72;;
31004;SDS011;17676;52.254;4.490;2023-02-14T16:53:56;79.40;;;53.08;;
31004;SDS011;17676;52.254;4.490;2023-02-14T16:56:23;73.80;;;51.92;;
31004;SDS011;17676;52.254;4.490;2023-02-14T16:58:50;75.15;;;51.53;;
31004;SDS011;17676;52.254;4.490;2023-02-14T17:01:16;74.28;;;51.72;;